気象予報士の航空気象 バンクーバーオリンピック開幕

*All archives   *Admin

スポンサーサイト

上記の広告は1ヶ月以上更新のないブログに表示されています。
新しい記事を書く事で広告が消せます。
--:--  |  スポンサー広告  |  EDIT  |  Top↑

2010.02.13 (Sat)

バンクーバーオリンピック開幕

 バンクーバーオリンピックが開幕しました。


雪不足が心配されていますが、実際どんな天気なんでしょう?


バンクーバー空港のMETARです。


開幕時
CYVR 130200Z 15015KT 15SM -SHRA SCT030 OVC070 10/06 A2982 RMK SC4AC4 CVCTV CLD EMBD SLP099

なんと気温10度。


海洋が近いせいかなんなのか、最低でも6度程度です。


これじゃぁ、雪不足が心配されるわけですね。


日本やアメリカ東海岸を襲っている寒波も西海岸にはまったく縁がないどころか、暖気が流入しているらしいですからね。


こりゃ、たいへんだ。





ブログランキングに参加しています。
にほんブログ村 環境ブログ 天気・気象学へ
にほんブログ村
応援クリックをおねがします。


以下、アフィリエイトサイトです。




スポンサーサイト
23:28  |  時事  |  TB(0)  |  CM(0)  |  EDIT  |  Top↑

コメントを投稿する


 管理者だけに表示  (非公開コメント投稿可能)

▲PageTop

この記事のトラックバックURL

→http://weathereucalyptus.blog115.fc2.com/tb.php/392-72b65027
この記事にトラックバックする(FC2ブログユーザー)

この記事へのトラックバック

▲PageTop

 | BLOGTOP | 
上記広告は1ヶ月以上更新のないブログに表示されています。新しい記事を書くことで広告を消せます。